createdAt,value
2018-10-01T00:00:00.509Z,13.00
2018-10-01T00:02:28.994Z,13.00
2018-10-01T00:04:57.529Z,13.10
2018-10-01T00:07:26.019Z,13.00
2018-10-01T00:09:55.079Z,13.10
2018-10-01T00:12:24.162Z,13.10
2018-10-01T00:14:52.680Z,13.10
2018-10-01T00:17:21.145Z,13.10
2018-10-01T00:19:54.921Z,13.10
2018-10-01T00:22:28.682Z,13.10
2018-10-01T00:24:57.485Z,13.10
2018-10-01T00:27:27.255Z,13.10
2018-10-01T00:29:55.762Z,13.00
2018-10-01T00:32:24.495Z,13.00
2018-10-01T00:34:52.978Z,13.10
2018-10-01T00:37:21.481Z,13.10
2018-10-01T00:39:50.094Z,13.10
2018-10-01T00:42:18.903Z,13.10
2018-10-01T00:44:47.467Z,13.10
2018-10-01T00:52:12.154Z,13.10
2018-10-01T00:54:40.646Z,13.10
2018-10-01T00:57:09.137Z,13.00
2018-10-01T00:59:38.838Z,13.10
2018-10-01T01:02:07.337Z,13.10
2018-10-01T01:04:35.871Z,13.20
2018-10-01T01:07:04.436Z,13.10
2018-10-01T01:09:33.092Z,13.10
2018-10-01T01:12:01.939Z,13.20
2018-10-01T01:14:30.902Z,13.10
2018-10-01T01:16:59.435Z,13.20
2018-10-01T01:19:28.355Z,13.20
2018-10-01T01:21:56.893Z,13.20
2018-10-01T01:24:25.407Z,13.20
2018-10-01T01:26:54.127Z,13.20
2018-10-01T01:29:22.782Z,13.10
2018-10-01T01:31:51.425Z,13.10
2018-10-01T01:34:20.274Z,13.10
2018-10-01T01:36:49.227Z,13.20
2018-10-01T01:39:17.734Z,13.10
2018-10-01T01:41:46.240Z,13.10
2018-10-01T01:49:15.086Z,13.20
2018-10-01T01:51:43.584Z,13.20
2018-10-01T01:54:12.162Z,13.10
2018-10-01T01:56:40.734Z,13.10
2018-10-01T01:59:09.733Z,13.10
2018-10-01T02:01:38.274Z,13.00
2018-10-01T02:04:06.860Z,13.10
2018-10-01T02:06:35.392Z,13.20
2018-10-01T02:09:04.794Z,13.20
2018-10-01T02:11:33.378Z,13.20
2018-10-01T02:14:01.956Z,13.20
2018-10-01T02:16:30.475Z,13.20
2018-10-01T02:18:59.728Z,13.20
2018-10-01T02:21:28.317Z,13.20
2018-10-01T02:23:57.587Z,13.20
2018-10-01T02:26:26.125Z,13.20
2018-10-01T02:28:54.632Z,13.20
2018-10-01T02:31:23.186Z,13.30
2018-10-01T02:33:51.778Z,13.30
2018-10-01T02:36:21.137Z,13.40
2018-10-01T02:38:49.642Z,13.40
2018-10-01T02:41:18.772Z,13.30
2018-10-01T02:43:47.342Z,13.20
2018-10-01T02:46:17.394Z,13.20
2018-10-01T02:48:45.930Z,13.10
2018-10-01T02:56:13.073Z,13.20
2018-10-01T02:58:41.577Z,13.00
2018-10-01T03:01:10.089Z,12.90
2018-10-01T03:03:39.087Z,12.90
2018-10-01T03:06:07.640Z,12.90
2018-10-01T03:08:36.117Z,12.90
2018-10-01T03:11:04.682Z,12.80
2018-10-01T03:13:33.177Z,12.80
2018-10-01T03:16:01.929Z,12.80
2018-10-01T03:18:30.881Z,12.70
2018-10-01T03:20:59.399Z,12.70
2018-10-01T03:23:29.056Z,12.60
2018-10-01T03:25:57.893Z,12.70
2018-10-01T03:28:26.369Z,12.70
2018-10-01T03:30:54.857Z,12.70
2018-10-01T03:33:23.370Z,12.70
2018-10-01T03:35:52.046Z,12.70
2018-10-01T03:38:20.538Z,12.70
2018-10-01T03:40:49.046Z,12.60
2018-10-01T03:43:17.523Z,12.70
2018-10-01T03:45:46.098Z,12.70
2018-10-01T03:53:13.935Z,12.70
2018-10-01T03:55:42.418Z,12.60
2018-10-01T03:58:10.889Z,12.60
2018-10-01T04:00:39.407Z,12.60
2018-10-01T04:03:07.931Z,12.60
2018-10-01T04:05:36.438Z,12.50
2018-10-01T04:08:04.969Z,12.50
2018-10-01T04:10:33.497Z,12.50
2018-10-01T04:13:02.078Z,12.50
2018-10-01T04:15:30.937Z,12.50
2018-10-01T04:17:59.922Z,12.50
2018-10-01T04:20:28.492Z,12.50
2018-10-01T04:22:57.114Z,12.40
2018-10-01T04:25:25.578Z,12.50
2018-10-01T04:27:54.092Z,12.40
2018-10-01T04:30:22.599Z,12.50
2018-10-01T04:32:51.175Z,12.40
2018-10-01T04:35:19.746Z,12.40
2018-10-01T04:37:48.845Z,12.50
2018-10-01T04:40:17.482Z,12.50
2018-10-01T04:42:46.736Z,12.60
2018-10-01T04:50:15.596Z,12.70
2018-10-01T04:52:44.163Z,12.70
2018-10-01T04:55:12.807Z,12.70
2018-10-01T04:57:41.535Z,12.70
2018-10-01T05:00:10.351Z,12.70
2018-10-01T05:02:38.940Z,12.70
2018-10-01T05:05:07.543Z,12.70
2018-10-01T05:07:36.042Z,12.60
2018-10-01T05:10:04.683Z,12.50
2018-10-01T05:12:33.222Z,12.50
2018-10-01T05:15:01.719Z,12.60
2018-10-01T05:17:30.206Z,12.60
2018-10-01T05:19:59.666Z,12.50
2018-10-01T05:22:28.190Z,12.40
2018-10-01T05:24:58.654Z,12.40
2018-10-01T05:27:27.167Z,12.40
2018-10-01T05:29:56.758Z,12.30
2018-10-01T05:32:25.266Z,12.30
2018-10-01T05:34:53.923Z,12.20
2018-10-01T05:37:22.456Z,12.20
2018-10-01T05:39:51.121Z,12.20
2018-10-01T05:42:19.889Z,12.20
2018-10-01T05:44:49.283Z,12.20
2018-10-01T05:47:17.844Z,12.20
2018-10-01T05:49:46.410Z,12.20
2018-10-01T05:57:14.407Z,12.10
2018-10-01T05:59:42.925Z,12.00
2018-10-01T06:02:11.464Z,12.10
2018-10-01T06:04:40.044Z,12.10
2018-10-01T06:07:10.185Z,12.10
2018-10-01T06:09:38.677Z,12.20
2018-10-01T06:12:07.497Z,12.20
2018-10-01T06:14:36.719Z,12.20
2018-10-01T06:17:05.310Z,12.20
2018-10-01T06:19:33.926Z,12.20
2018-10-01T06:22:03.072Z,12.20
2018-10-01T06:24:34.635Z,12.20
2018-10-01T06:27:03.708Z,12.20
2018-10-01T06:29:32.587Z,12.10
2018-10-01T06:32:01.135Z,12.20
2018-10-01T06:34:29.705Z,12.20
2018-10-01T06:36:58.238Z,12.20
2018-10-01T06:39:27.377Z,12.20
2018-10-01T06:41:56.395Z,12.20
2018-10-01T06:44:25.299Z,12.10
2018-10-01T06:46:53.797Z,12.10
2018-10-01T06:49:23.635Z,12.10
2018-10-01T06:51:52.166Z,12.10
2018-10-01T06:54:20.736Z,12.00
2018-10-01T06:56:49.472Z,11.90
2018-10-01T06:59:18.026Z,11.80
2018-10-01T07:01:46.642Z,11.70
2018-10-01T07:09:16.700Z,11.50
2018-10-01T07:11:45.385Z,11.50
2018-10-01T07:19:09.331Z,11.40
2018-10-01T07:21:37.858Z,11.30
2018-10-01T07:24:06.939Z,11.30
2018-10-01T07:26:35.528Z,11.40
2018-10-01T07:29:04.042Z,11.40
2018-10-01T07:31:32.523Z,11.40
2018-10-01T07:34:01.071Z,11.50
2018-10-01T07:36:29.588Z,11.50
2018-10-01T07:38:58.845Z,11.50
2018-10-01T07:41:27.329Z,11.60
2018-10-01T07:43:55.809Z,11.70
2018-10-01T07:46:24.397Z,11.70
2018-10-01T07:48:53.283Z,11.70
2018-10-01T07:51:22.051Z,11.70
2018-10-01T07:53:51.208Z,11.70
2018-10-01T07:56:19.858Z,11.70
2018-10-01T07:58:48.441Z,11.70
2018-10-01T08:01:17.378Z,11.80
2018-10-01T08:03:45.928Z,11.90
2018-10-01T08:11:14.175Z,12.00
2018-10-01T08:13:42.651Z,12.00
2018-10-01T08:16:11.634Z,12.00
2018-10-01T08:18:40.218Z,12.00
2018-10-01T08:21:08.846Z,12.10
2018-10-01T08:23:37.771Z,12.20
2018-10-01T08:26:06.708Z,12.00
2018-10-01T08:28:35.226Z,12.00
2018-10-01T08:31:03.718Z,12.00
2018-10-01T08:33:32.277Z,12.20
2018-10-01T08:36:00.775Z,12.30
2018-10-01T08:38:29.407Z,12.20
2018-10-01T08:40:58.249Z,12.20
2018-10-01T08:43:26.983Z,12.30
2018-10-01T08:45:55.474Z,12.30
2018-10-01T08:48:25.010Z,12.40
2018-10-01T08:50:58.654Z,12.50
2018-10-01T08:53:37.530Z,12.50
2018-10-01T14:21:32.377Z,13.30
2018-10-01T14:24:01.181Z,13.20
2018-10-01T14:26:29.751Z,13.00
2018-10-01T14:28:59.509Z,13.10
2018-10-01T14:31:29.242Z,13.00
2018-10-01T14:33:57.950Z,13.00
2018-10-01T14:36:26.758Z,12.90
2018-10-01T14:38:55.350Z,12.80
2018-10-01T14:41:23.920Z,12.90
2018-10-01T14:43:53.167Z,12.80
2018-10-01T14:46:21.831Z,12.70
2018-10-01T14:48:50.373Z,12.60
2018-10-01T14:51:19.094Z,12.50
2018-10-01T14:53:47.724Z,12.40
2018-10-01T14:57:27.260Z,12.30
2018-10-01T14:59:56.051Z,12.20
2018-10-01T15:02:24.615Z,12.10
2018-10-01T15:04:53.219Z,12.00
2018-10-01T15:07:21.826Z,12.10
2018-10-01T15:09:50.347Z,12.10
2018-10-01T15:12:18.908Z,12.00
2018-10-01T15:14:47.487Z,11.90
2018-10-01T15:22:11.818Z,12.00
2018-10-01T15:24:40.409Z,12.00
2018-10-01T15:27:09.018Z,12.00
2018-10-01T15:29:37.681Z,12.00
2018-10-01T15:32:07.711Z,12.00
2018-10-01T15:34:36.245Z,12.10
2018-10-01T15:37:04.817Z,12.10
2018-10-01T15:39:33.507Z,12.00
2018-10-01T15:42:02.112Z,12.00
2018-10-01T15:44:30.646Z,12.10
2018-10-01T15:46:59.599Z,12.10
2018-10-01T15:49:28.205Z,12.10
2018-10-01T15:51:56.961Z,12.10
2018-10-01T15:54:25.546Z,12.00
2018-10-01T15:56:54.964Z,11.90
2018-10-01T15:59:23.873Z,11.80
2018-10-01T16:01:53.433Z,11.80
2018-10-01T16:04:22.026Z,11.60
2018-10-01T16:06:51.391Z,11.70
2018-10-01T16:09:20.273Z,11.60
2018-10-01T16:11:49.119Z,11.60
2018-10-01T16:14:18.137Z,11.70
2018-10-01T16:16:46.684Z,11.70
2018-10-01T16:26:52.126Z,11.30
2018-10-01T16:29:20.718Z,11.20
2018-10-01T16:31:49.399Z,11.20
2018-10-01T16:34:18.047Z,11.10
2018-10-01T16:36:46.703Z,11.20
2018-10-01T16:46:50.539Z,11.10
2018-10-01T16:49:19.967Z,11.10
2018-10-01T16:51:48.549Z,11.20
2018-10-01T16:54:17.588Z,11.10
2018-10-01T16:56:46.165Z,11.10
2018-10-01T17:04:15.558Z,11.00
2018-10-01T17:06:44.163Z,10.80
2018-10-01T17:09:12.707Z,10.80
2018-10-01T17:11:41.365Z,10.80
2018-10-01T17:14:09.870Z,10.70
2018-10-01T17:16:38.360Z,10.60
2018-10-01T17:19:07.214Z,10.50
2018-10-01T17:21:35.751Z,10.60
2018-10-01T17:24:04.327Z,10.50
2018-10-01T17:26:33.396Z,10.50
2018-10-01T17:29:01.971Z,10.50
2018-10-01T17:31:30.687Z,10.50
2018-10-01T17:34:01.440Z,10.40
2018-10-01T17:36:30.074Z,10.40
2018-10-01T17:38:59.907Z,10.30
2018-10-01T17:41:28.435Z,10.20
2018-10-01T17:43:56.952Z,10.20
2018-10-01T17:46:25.485Z,10.30
2018-10-01T17:48:54.986Z,10.30
2018-10-01T17:51:23.637Z,10.30
2018-10-01T17:53:52.487Z,10.40
2018-10-01T17:56:21.042Z,10.40
2018-10-01T17:58:49.610Z,10.30
2018-10-01T18:01:18.454Z,10.20
2018-10-01T18:03:47.029Z,10.20
2018-10-01T18:11:16.110Z,10.20
2018-10-01T18:13:44.608Z,10.30
2018-10-01T18:16:13.113Z,10.30
2018-10-01T18:18:41.723Z,10.20
2018-10-01T18:21:10.251Z,10.30
2018-10-01T18:23:38.747Z,10.30
2018-10-01T18:26:07.329Z,10.10
2018-10-01T18:28:36.270Z,10.20
2018-10-01T18:31:04.882Z,10.20
2018-10-01T18:33:35.174Z,10.30
2018-10-01T18:36:03.743Z,10.20
2018-10-01T18:38:32.282Z,10.10
2018-10-01T18:41:00.862Z,10.10
2018-10-01T18:43:29.697Z,10.00
2018-10-01T18:45:58.251Z,9.90
2018-10-01T18:48:26.823Z,9.90
2018-10-01T18:50:55.503Z,9.90
2018-10-01T18:53:24.066Z,9.90
2018-10-01T18:55:52.650Z,9.90
2018-10-01T18:58:21.302Z,9.80
2018-10-01T19:00:49.882Z,9.80
2018-10-01T19:03:18.576Z,9.80
2018-10-01T19:05:47.498Z,9.90
2018-10-01T19:08:17.421Z,10.00
2018-10-01T19:10:46.042Z,9.90
2018-10-01T19:18:11.410Z,9.90
2018-10-01T19:20:39.971Z,9.80
2018-10-01T19:23:08.611Z,9.80
2018-10-01T19:25:38.470Z,9.80
2018-10-01T19:28:06.994Z,9.70
2018-10-01T19:30:36.261Z,9.80
2018-10-01T19:33:04.845Z,9.80
2018-10-01T19:35:33.399Z,9.80
2018-10-01T19:38:02.044Z,9.80
2018-10-01T19:40:30.969Z,9.70
2018-10-01T19:42:59.547Z,9.80
2018-10-01T19:45:28.059Z,9.70
2018-10-01T19:47:56.681Z,9.80
2018-10-01T19:50:25.282Z,9.80
2018-10-01T19:52:53.956Z,9.70
2018-10-01T19:55:22.594Z,9.80
2018-10-01T19:57:51.206Z,9.70
2018-10-01T20:00:19.829Z,9.70
2018-10-01T20:02:49.022Z,9.70
2018-10-01T20:05:17.661Z,9.70
2018-10-01T20:07:47.379Z,9.70
2018-10-01T20:10:17.579Z,9.70
2018-10-01T20:12:46.984Z,9.70
2018-10-01T20:25:08.693Z,9.70
2018-10-01T20:27:37.332Z,9.60
2018-10-01T20:30:05.869Z,9.50
2018-10-01T20:32:34.826Z,9.50
2018-10-01T20:35:05.639Z,9.50
2018-10-01T20:37:34.346Z,9.50
2018-10-01T20:40:02.939Z,9.50
2018-10-01T20:42:31.622Z,9.50
2018-10-01T20:45:00.134Z,9.50
2018-10-01T20:47:29.182Z,9.50
2018-10-01T20:49:58.074Z,9.40
2018-10-01T20:52:26.794Z,9.40
2018-10-01T20:54:55.315Z,9.40
2018-10-01T20:57:23.901Z,9.50
2018-10-01T20:59:52.788Z,9.40
2018-10-01T21:02:21.429Z,9.50
2018-10-01T21:04:49.939Z,9.50
2018-10-01T21:07:18.901Z,9.50
2018-10-01T21:09:47.605Z,9.40
2018-10-01T21:17:09.158Z,9.30
2018-10-01T21:19:37.679Z,9.30
2018-10-01T21:22:06.457Z,9.30
2018-10-01T21:24:35.165Z,9.40
2018-10-01T21:27:03.663Z,9.40
2018-10-01T21:29:32.197Z,9.50
2018-10-01T21:32:01.352Z,9.30
2018-10-01T21:34:30.115Z,9.30
2018-10-01T21:36:58.658Z,9.30
2018-10-01T21:40:04.766Z,9.20
2018-10-01T21:42:33.298Z,9.30
2018-10-01T21:45:02.276Z,9.30
2018-10-01T21:47:31.542Z,9.20
2018-10-01T21:50:00.730Z,9.10
2018-10-01T21:52:29.769Z,9.20
2018-10-01T21:54:58.735Z,9.10
2018-10-01T21:57:27.337Z,9.00
2018-10-01T21:59:56.050Z,9.00
2018-10-01T22:02:24.651Z,8.90
2018-10-01T22:04:53.276Z,8.90
2018-10-01T22:07:22.654Z,8.70
2018-10-01T22:09:51.586Z,8.70
2018-10-01T22:12:20.115Z,8.60
2018-10-01T22:14:48.689Z,8.60
2018-10-01T22:17:18.697Z,8.60
2018-10-01T22:19:47.939Z,8.70
2018-10-01T22:22:17.487Z,8.60
2018-10-01T22:24:46.036Z,8.60
2018-10-01T22:32:15.558Z,8.70
2018-10-01T22:34:45.940Z,8.60
2018-10-01T22:42:12.639Z,8.50
2018-10-01T22:44:41.156Z,8.50
2018-10-01T22:47:09.730Z,8.50
2018-10-01T22:49:38.778Z,8.60
2018-10-01T22:52:07.310Z,8.60
2018-10-01T22:54:35.824Z,8.60
2018-10-01T22:57:04.442Z,8.60
2018-10-01T22:59:33.008Z,8.70
2018-10-01T23:02:01.519Z,8.80
2018-10-01T23:04:30.143Z,8.80
2018-10-01T23:06:58.745Z,8.90
2018-10-01T23:09:27.450Z,9.00
2018-10-01T23:11:56.367Z,9.00
2018-10-01T23:14:25.000Z,8.80
2018-10-01T23:16:54.107Z,8.80
2018-10-01T23:19:22.650Z,8.70
2018-10-01T23:21:51.154Z,8.70
2018-10-01T23:24:21.205Z,8.70
2018-10-01T23:26:49.731Z,8.80
2018-10-01T23:29:18.253Z,8.80
2018-10-01T23:31:46.856Z,8.80
2018-10-01T23:39:15.155Z,8.80
2018-10-01T23:41:43.673Z,8.70
2018-10-01T23:44:12.215Z,8.70
2018-10-01T23:46:41.001Z,8.70
2018-10-01T23:49:09.482Z,8.70
2018-10-01T23:51:38.021Z,8.70
2018-10-01T23:54:06.720Z,8.70
2018-10-01T23:56:35.254Z,8.70
2018-10-01T23:59:03.792Z,8.70
